Etusivu
METAR-TAF:

METAR-TAF

Lentoasemat :

Arctic Bay, Nunavut, Kanada

Leveyspiiri: 73-00-23N, Pituuspiiri: 085-02-50W, korkeus merenpinnasta: 22 m

Tämänhetkinen sää

Tämä raportti tehtiin 11 tuntia ja 8 minuuttia sitten, kello 23.00 UTC
tyyntä
Lämpötila -30°C
Kosteus 68%
Ilmanpaine 1020 hPa
Näkyvyys: 32.2 km
Muutamia pilviä 1600 ft:n korkeudessa

METAR: CYAB 242300Z 00000KT 20SM FEW016 M30/M34 A3013 RMK SC1 SC TR FROIN SN GAUGE 0.0 LAST STFD OBS/NXT 251200Z SLP209

Aika: 05:08 (10:08 UTC)

Sääennuste

Tämä raportti tehtiin 15 tuntia ja 30 minuuttia sitten, kello 18.38 UTC
Ennuste voimassa 24. päivästä klo 19 UTC - 24. päivään klo 23 UTC
Tuuli 3 kn eri suunnista
Näkyvyys: 10 km
selkeää

TAF: CYAB 241838Z 2419/2423 VRB03KT P6SM SKC RMK NXT FCST WILL BE ISSUED AT 251345Z

Säähavainnot ja -ennusteet yli 4000 lentoasemalta (METAR- ja TAF-raportit).

Käytössä olevat sääasemat on merkitty karttaan keltaisilla ja punaisilla pisteillä.

Aseta hiiri pisteen päälle nähdäksesi sääaseman nimen.

Klikkaa sitten nähdäksesi säähavainnot ja -ennusteet.

Kartan vaihtaminen: klikkaa mustalla rastilla varustettuja vihreitä pisteitä, niin voit zoomata sisään; viivalla varustettua vihreää pistettä, niin voit zoomata ulos tai vihreitä nuolia, niin pääset viereisille kartoille.


METAR-TAF: